createdAt,value
2023-10-18T04:15:22.896Z,12.90
2023-10-18T04:16:22.866Z,12.90
2023-10-18T04:17:22.785Z,13.10
2023-10-18T04:18:22.771Z,13.50
2023-10-18T04:19:22.813Z,12.70
2023-10-18T04:20:22.747Z,12.70
2023-10-18T04:21:22.726Z,13.10
2023-10-18T04:22:22.716Z,12.50
2023-10-18T04:23:22.721Z,13.20
2023-10-18T04:24:22.693Z,13.30
2023-10-18T04:25:22.723Z,13.70
2023-10-18T04:26:22.679Z,13.40
2023-10-18T04:27:22.647Z,13.00
2023-10-18T04:28:22.657Z,12.90
2023-10-18T04:29:22.667Z,13.80
2023-10-18T04:30:22.627Z,13.80
2023-10-18T04:31:23.229Z,12.90
2023-10-18T04:32:22.591Z,13.30
2023-10-18T04:33:22.613Z,13.40
2023-10-18T04:34:22.611Z,12.80
2023-10-18T04:35:22.546Z,13.10
2023-10-18T04:36:22.530Z,13.80
2023-10-18T04:37:22.593Z,13.70
2023-10-18T04:38:22.510Z,14.40
2023-10-18T04:39:22.507Z,13.70
2023-10-18T04:40:22.537Z,13.30
2023-10-18T04:41:22.477Z,13.40
2023-10-18T04:42:22.466Z,13.80
2023-10-18T04:43:22.482Z,13.80
2023-10-18T04:44:22.449Z,15.10
2023-10-18T04:45:22.421Z,13.60
2023-10-18T04:46:22.458Z,13.10
2023-10-18T04:47:22.393Z,13.80
2023-10-18T04:48:22.393Z,13.20
2023-10-18T04:49:22.371Z,14.40
2023-10-18T04:50:22.357Z,14.40
2023-10-18T04:51:22.339Z,13.90
2023-10-18T04:52:22.356Z,13.60
2023-10-18T04:53:22.341Z,13.40
2023-10-18T04:54:22.301Z,13.80
2023-10-18T04:55:22.316Z,14.50
2023-10-18T04:56:22.279Z,14.10
2023-10-18T04:57:22.284Z,13.80
2023-10-18T04:58:22.272Z,14.50
2023-10-18T04:59:22.234Z,14.40
2023-10-18T05:00:22.223Z,13.00
2023-10-18T05:01:22.246Z,14.00
2023-10-18T05:02:22.211Z,13.50
2023-10-18T05:03:22.204Z,14.10
2023-10-18T05:04:22.271Z,14.70
2023-10-18T05:05:22.160Z,13.40
2023-10-18T05:06:22.148Z,13.60
2023-10-18T05:07:22.205Z,13.50
2023-10-18T05:08:22.128Z,13.80
2023-10-18T05:09:22.116Z,13.60
2023-10-18T05:10:25.530Z,14.10
2023-10-18T05:11:30.159Z,12.30
2023-10-18T05:12:22.091Z,19.70
2023-10-18T05:13:22.091Z,18.30
2023-10-18T05:14:22.047Z,18.10
2023-10-18T05:15:22.032Z,17.10
2023-10-18T05:16:22.129Z,15.80
2023-10-18T05:17:22.025Z,13.30
2023-10-18T05:18:21.999Z,12.30
2023-10-18T05:19:22.012Z,12.60
2023-10-18T05:20:21.972Z,11.60
2023-10-18T05:21:22.011Z,11.90
2023-10-18T05:22:22.034Z,11.80
2023-10-18T05:23:21.929Z,11.60
2023-10-18T05:24:21.926Z,12.50
2023-10-18T05:25:22.001Z,10.20
2023-10-18T05:26:21.915Z,10.10
2023-10-18T05:27:21.875Z,11.00
2023-10-18T05:28:21.923Z,10.50
2023-10-18T05:29:21.864Z,10.70
2023-10-18T05:30:21.856Z,11.40
2023-10-18T05:31:21.912Z,10.40
2023-10-18T05:32:29.981Z,10.90
2023-10-18T05:33:22.877Z,9.90
2023-10-18T05:34:21.887Z,11.40
2023-10-18T05:35:21.794Z,10.50
2023-10-18T05:36:21.774Z,10.20
2023-10-18T05:37:21.777Z,10.00
2023-10-18T05:38:21.750Z,11.10
2023-10-18T05:39:21.746Z,10.00
2023-10-18T05:40:21.762Z,10.20
2023-10-18T05:41:21.701Z,10.90
2023-10-18T05:42:21.715Z,9.90
2023-10-18T05:43:21.699Z,9.50
2023-10-18T05:44:21.678Z,9.80
2023-10-18T05:45:21.657Z,9.70
2023-10-18T05:46:21.963Z,9.50
2023-10-18T05:47:21.625Z,9.70
2023-10-18T05:48:21.614Z,9.90
2023-10-18T05:49:21.639Z,9.30
2023-10-18T05:50:21.591Z,9.70
2023-10-18T05:51:34.764Z,9.40
2023-10-18T05:52:22.579Z,9.90
2023-10-18T05:53:21.550Z,10.60
2023-10-18T05:54:21.543Z,10.00
2023-10-18T05:55:21.568Z,9.70
2023-10-18T05:56:21.505Z,9.90
2023-10-18T05:57:21.495Z,10.30
2023-10-18T05:58:21.503Z,10.20
2023-10-18T05:59:21.968Z,10.80
2023-10-18T06:00:21.461Z,10.70
2023-10-18T06:01:21.506Z,10.70
2023-10-18T06:02:21.506Z,11.40
2023-10-18T06:03:21.472Z,11.20
2023-10-18T06:04:21.435Z,11.00
2023-10-18T06:05:21.395Z,11.20
2023-10-18T06:06:21.371Z,11.60
2023-10-18T06:07:23.385Z,12.10
2023-10-18T06:08:21.362Z,12.20
2023-10-18T06:09:21.341Z,11.70
2023-10-18T06:10:21.369Z,11.50
2023-10-18T06:11:21.314Z,11.10
2023-10-18T06:12:21.316Z,12.20
2023-10-18T06:13:21.312Z,11.90
2023-10-18T06:14:21.270Z,11.90
2023-10-18T06:15:21.264Z,12.60
2023-10-18T06:16:21.356Z,12.00
2023-10-18T06:17:21.300Z,12.60
2023-10-18T06:18:21.369Z,14.40
2023-10-18T06:19:21.248Z,12.20
2023-10-18T06:20:21.202Z,12.50
2023-10-18T06:21:21.256Z,11.90
2023-10-18T06:22:21.199Z,12.00
2023-10-18T06:23:21.194Z,12.10
2023-10-18T06:24:21.142Z,12.00
2023-10-18T06:25:21.170Z,12.70
2023-10-18T06:26:21.133Z,11.80
2023-10-18T06:27:21.113Z,12.20
2023-10-18T06:28:21.805Z,12.50
2023-10-18T06:29:21.102Z,11.90
2023-10-18T06:30:21.074Z,12.40
2023-10-18T06:31:23.233Z,12.70
2023-10-18T06:32:21.075Z,12.30
2023-10-18T06:33:21.037Z,12.20
2023-10-18T06:34:21.057Z,12.10
2023-10-18T06:35:21.083Z,12.10
2023-10-18T06:36:21.008Z,12.00
2023-10-18T06:37:21.012Z,11.30
2023-10-18T06:38:20.976Z,11.00
2023-10-18T06:39:20.962Z,11.60
2023-10-18T06:40:20.985Z,11.80
2023-10-18T06:41:20.954Z,11.40
2023-10-18T06:42:20.922Z,11.80
2023-10-18T06:43:20.998Z,11.70
2023-10-18T06:44:20.901Z,12.10
2023-10-18T06:45:20.908Z,11.80
2023-10-18T06:46:20.906Z,12.30
2023-10-18T06:47:20.861Z,11.90
2023-10-18T06:48:20.860Z,11.80
2023-10-18T06:49:20.865Z,11.70
2023-10-18T06:50:21.286Z,11.90
2023-10-18T06:51:20.847Z,11.80
2023-10-18T06:52:20.823Z,11.50
2023-10-18T06:53:20.797Z,11.50
2023-10-18T06:54:20.786Z,11.70
2023-10-18T06:55:20.786Z,11.60
2023-10-18T06:56:20.891Z,11.10
2023-10-18T06:57:20.737Z,11.70
2023-10-18T06:58:20.736Z,11.90
2023-10-18T06:59:20.736Z,12.30
2023-10-18T07:00:20.705Z,11.60
2023-10-18T07:01:20.802Z,11.40
2023-10-18T07:02:20.688Z,11.80
2023-10-18T07:03:20.729Z,12.90
2023-10-18T07:04:20.676Z,11.90
2023-10-18T07:05:20.633Z,11.20
2023-10-18T07:06:20.765Z,10.90
2023-10-18T07:07:20.647Z,11.70
2023-10-18T07:08:20.618Z,10.80
2023-10-18T07:09:20.590Z,10.20
2023-10-18T07:10:20.600Z,10.30
2023-10-18T07:11:28.760Z,11.90
2023-10-18T07:12:21.542Z,10.30
2023-10-18T07:13:20.605Z,10.30
2023-10-18T07:14:20.525Z,10.10
2023-10-18T07:15:20.513Z,9.80
2023-10-18T07:16:20.585Z,10.80
2023-10-18T07:17:20.487Z,11.00
2023-10-18T07:18:20.505Z,10.10
2023-10-18T07:19:20.539Z,11.80
2023-10-18T07:20:20.465Z,10.50
2023-10-18T07:21:20.508Z,9.70
2023-10-18T07:22:20.516Z,10.10
2023-10-18T07:23:20.456Z,9.90
2023-10-18T07:24:20.398Z,9.60
2023-10-18T07:25:20.796Z,10.00
2023-10-18T07:26:20.379Z,10.10
2023-10-18T07:27:20.360Z,10.20
2023-10-18T07:28:20.394Z,10.50
2023-10-18T07:29:20.324Z,10.20
2023-10-18T07:30:20.328Z,9.60
2023-10-18T07:31:20.358Z,9.90
2023-10-18T07:32:20.387Z,9.60
2023-10-18T07:33:20.339Z,9.10
2023-10-18T07:34:20.474Z,9.30
2023-10-18T07:35:20.248Z,9.40
2023-10-18T07:36:20.246Z,9.30
2023-10-18T07:37:20.382Z,9.50
2023-10-18T07:38:20.202Z,9.80
2023-10-18T07:39:20.198Z,9.10
2023-10-18T07:40:20.199Z,10.00
2023-10-18T07:41:20.182Z,9.30
2023-10-18T07:42:20.280Z,9.00
2023-10-18T07:43:20.159Z,8.90
2023-10-18T07:44:20.133Z,9.60
2023-10-18T07:45:20.117Z,8.80
2023-10-18T07:46:20.279Z,9.00
2023-10-18T07:47:20.093Z,9.20
2023-10-18T07:48:20.105Z,9.00
2023-10-18T07:49:20.250Z,8.70
2023-10-18T07:50:20.054Z,9.00
2023-10-18T07:51:20.053Z,8.60
2023-10-18T07:52:20.050Z,8.20
2023-10-18T07:53:20.016Z,8.60
2023-10-18T07:54:20.000Z,8.30
2023-10-18T07:55:20.021Z,8.00
2023-10-18T07:56:19.982Z,8.10
2023-10-18T07:57:19.961Z,8.50
2023-10-18T07:58:19.988Z,8.40
2023-10-18T07:59:19.979Z,8.30
2023-10-18T08:00:19.938Z,7.80
2023-10-18T08:01:19.974Z,8.60
2023-10-18T08:02:19.889Z,8.50
2023-10-18T08:03:19.959Z,7.80
2023-10-18T08:04:19.964Z,9.30
2023-10-18T08:05:20.366Z,8.60
2023-10-18T08:06:19.844Z,9.30
2023-10-18T08:07:20.104Z,8.10
2023-10-18T08:08:19.845Z,8.00
2023-10-18T08:09:19.835Z,8.70
2023-10-18T08:10:19.864Z,7.70
2023-10-18T08:11:19.798Z,7.00
2023-10-18T08:12:19.768Z,7.90
2023-10-18T08:13:19.824Z,7.50
2023-10-18T08:14:19.750Z,7.30
2023-10-18T08:15:19.725Z,7.90
2023-10-18T08:16:19.735Z,8.40
2023-10-18T08:17:19.714Z,7.70
2023-10-18T08:18:19.690Z,7.40
2023-10-18T08:19:19.701Z,7.50
2023-10-18T08:20:19.694Z,7.80
2023-10-18T08:21:19.652Z,7.70
2023-10-18T08:22:21.515Z,7.60
2023-10-18T08:23:19.639Z,7.70
2023-10-18T08:24:19.639Z,6.90
2023-10-18T08:25:19.669Z,7.50
2023-10-18T08:26:19.588Z,7.30
2023-10-18T08:27:19.582Z,7.00
2023-10-18T08:28:19.624Z,7.60
2023-10-18T08:29:19.556Z,7.10
2023-10-18T08:30:19.534Z,7.00
2023-10-18T08:31:19.534Z,7.00
2023-10-18T08:32:19.510Z,7.20
2023-10-18T08:33:19.503Z,7.30
2023-10-18T08:34:19.635Z,7.50
2023-10-18T08:35:19.466Z,7.30
2023-10-18T08:36:19.470Z,8.20
2023-10-18T08:37:19.460Z,7.00
2023-10-18T08:38:19.441Z,6.90
2023-10-18T08:39:19.411Z,6.90
2023-10-18T08:40:19.428Z,6.70
2023-10-18T08:41:19.397Z,6.70
2023-10-18T08:42:19.381Z,6.90
2023-10-18T08:43:19.383Z,7.10
2023-10-18T08:44:19.363Z,6.70
2023-10-18T08:45:19.334Z,6.70
2023-10-18T08:46:19.395Z,6.10
2023-10-18T08:47:19.357Z,6.40
2023-10-18T08:48:19.324Z,7.20
2023-10-18T08:49:19.322Z,7.00
2023-10-18T08:50:19.273Z,6.60
2023-10-18T08:51:19.271Z,6.60
2023-10-18T08:52:19.318Z,7.00
2023-10-18T08:53:19.234Z,6.20
2023-10-18T08:54:19.221Z,6.30
2023-10-18T08:55:19.260Z,6.40
2023-10-18T08:56:19.216Z,7.10
2023-10-18T08:57:19.198Z,6.40
2023-10-18T08:58:19.255Z,6.70
2023-10-18T08:59:19.154Z,6.40
2023-10-18T09:00:19.157Z,6.30
2023-10-18T09:01:19.193Z,6.10
2023-10-18T09:02:19.299Z,6.10
2023-10-18T09:03:19.168Z,6.20
2023-10-18T09:04:19.183Z,6.90
2023-10-18T09:05:19.081Z,6.70
2023-10-18T09:06:19.073Z,6.20
2023-10-18T09:07:19.100Z,6.40
2023-10-18T09:08:19.043Z,6.50
2023-10-18T09:09:19.034Z,5.80
2023-10-18T09:10:19.127Z,6.10
2023-10-18T09:11:19.043Z,6.00
2023-10-18T09:12:18.991Z,5.90
2023-10-18T09:13:19.993Z,5.90
2023-10-18T09:14:19.030Z,5.30
2023-10-18T09:15:18.980Z,5.70
2023-10-18T09:16:18.995Z,6.30
2023-10-18T09:17:18.992Z,5.60
2023-10-18T09:18:18.910Z,5.70
2023-10-18T09:19:18.926Z,5.70
2023-10-18T09:20:18.906Z,5.90
2023-10-18T09:21:19.335Z,5.50
2023-10-18T09:22:18.935Z,5.60
2023-10-18T09:23:18.856Z,5.50
2023-10-18T09:24:18.848Z,5.70
2023-10-18T09:25:18.881Z,5.60
2023-10-18T09:26:18.800Z,6.40
2023-10-18T09:27:18.786Z,5.20
2023-10-18T09:28:18.833Z,5.50
2023-10-18T09:29:18.769Z,5.00
2023-10-18T09:30:18.754Z,5.40
2023-10-18T09:31:20.964Z,5.90
2023-10-18T09:32:18.770Z,5.10
2023-10-18T09:33:18.730Z,5.60
2023-10-18T09:34:18.722Z,4.70
2023-10-18T09:35:18.686Z,5.30
2023-10-18T09:36:18.672Z,5.00
2023-10-18T09:37:18.749Z,5.10
2023-10-18T09:38:18.662Z,6.00
2023-10-18T09:39:18.627Z,5.10
2023-10-18T09:40:18.653Z,5.10
2023-10-18T09:41:18.605Z,5.10
2023-10-18T09:42:18.593Z,5.40
2023-10-18T09:43:18.637Z,5.30
2023-10-18T09:44:20.603Z,4.60
2023-10-18T09:45:18.558Z,4.60
2023-10-18T09:46:18.607Z,5.00
2023-10-18T09:47:18.605Z,4.60
2023-10-18T09:48:18.524Z,4.90
2023-10-18T09:49:18.574Z,4.80
2023-10-18T09:50:18.505Z,5.10
2023-10-18T09:51:18.469Z,4.90
2023-10-18T09:52:18.521Z,4.70
2023-10-18T09:53:18.445Z,4.80
2023-10-18T09:54:18.456Z,4.80
2023-10-18T09:55:18.437Z,4.70
2023-10-18T09:56:18.417Z,4.90
2023-10-18T09:57:18.403Z,4.80
2023-10-18T09:58:18.451Z,4.80
2023-10-18T09:59:18.388Z,4.80
2023-10-18T10:00:18.365Z,4.80
2023-10-18T10:01:18.436Z,4.70
2023-10-18T10:02:18.417Z,5.90
2023-10-18T10:03:18.418Z,4.80
2023-10-18T10:04:18.322Z,5.40
2023-10-18T10:05:18.293Z,4.60
2023-10-18T10:06:18.288Z,5.40
2023-10-18T10:07:18.355Z,4.80
2023-10-18T10:08:18.251Z,4.90
2023-10-18T10:09:18.252Z,4.60
2023-10-18T10:10:18.267Z,5.30
2023-10-18T10:11:18.235Z,5.00
2023-10-18T10:12:18.228Z,5.00
2023-10-18T10:13:18.228Z,5.30
2023-10-18T10:14:18.186Z,5.10
2023-10-18T10:15:18.194Z,5.00
2023-10-18T10:16:18.205Z,4.90
2023-10-18T10:17:18.164Z,5.10
2023-10-18T10:18:18.123Z,4.40
2023-10-18T10:19:18.132Z,5.10
2023-10-18T10:20:18.105Z,5.30
2023-10-18T10:21:18.087Z,5.20
2023-10-18T10:22:18.091Z,5.10
2023-10-18T10:23:18.077Z,5.00
2023-10-18T10:24:18.042Z,5.20
2023-10-18T10:25:26.238Z,4.90
2023-10-18T10:26:32.956Z,4.80
2023-10-18T10:27:19.010Z,5.30
2023-10-18T10:28:18.009Z,5.20
2023-10-18T10:29:17.999Z,4.30
2023-10-18T10:30:17.978Z,4.90
2023-10-18T10:31:18.014Z,5.10
2023-10-18T10:32:17.941Z,4.50
2023-10-18T10:33:17.935Z,4.50
2023-10-18T10:34:17.951Z,4.90
2023-10-18T10:35:17.906Z,4.90
2023-10-18T10:36:17.923Z,5.40
2023-10-18T10:37:17.881Z,4.90
2023-10-18T10:38:17.893Z,5.10
2023-10-18T10:39:17.867Z,5.40
2023-10-18T10:40:17.859Z,4.80
2023-10-18T10:41:17.836Z,5.10
2023-10-18T10:42:17.815Z,5.00
2023-10-18T10:43:17.865Z,4.40
2023-10-18T10:44:17.800Z,5.50
2023-10-18T10:45:17.798Z,5.80
2023-10-18T10:46:17.819Z,5.40
2023-10-18T10:47:17.778Z,4.90
2023-10-18T10:48:17.761Z,5.10
2023-10-18T10:49:17.759Z,5.00
2023-10-18T10:50:17.730Z,4.80
2023-10-18T10:51:17.703Z,4.40
2023-10-18T10:52:17.703Z,5.30
2023-10-18T10:53:17.694Z,5.00
2023-10-18T10:54:17.659Z,4.60
2023-10-18T10:55:17.709Z,4.80
2023-10-18T10:56:17.632Z,4.70
2023-10-18T10:57:17.643Z,4.80
2023-10-18T10:58:17.728Z,5.00
2023-10-18T10:59:17.601Z,5.40
2023-10-18T11:00:17.577Z,4.80
2023-10-18T11:01:17.621Z,4.50
2023-10-18T11:02:17.603Z,4.80
2023-10-18T11:03:17.581Z,4.50
2023-10-18T11:04:17.550Z,5.10
2023-10-18T11:05:17.525Z,4.70
2023-10-18T11:06:17.539Z,4.60
2023-10-18T11:07:17.537Z,4.70
2023-10-18T11:08:17.476Z,4.50
2023-10-18T11:09:17.484Z,4.70
2023-10-18T11:10:17.529Z,4.60
2023-10-18T11:11:17.456Z,4.50
2023-10-18T11:12:24.517Z,4.40
2023-10-18T11:13:17.479Z,4.80
2023-10-18T11:14:17.420Z,4.20
2023-10-18T11:15:17.507Z,4.30
2023-10-18T11:16:17.449Z,4.60
2023-10-18T11:17:17.803Z,4.50
2023-10-18T11:18:17.356Z,4.60
2023-10-18T11:19:17.365Z,4.60
2023-10-18T11:20:17.334Z,5.10
2023-10-18T11:21:17.335Z,5.10
2023-10-18T11:22:17.305Z,4.60
2023-10-18T11:23:17.274Z,4.60
2023-10-18T11:24:17.274Z,4.60
2023-10-18T11:25:17.291Z,4.40
2023-10-18T11:26:17.264Z,4.70
2023-10-18T11:27:17.229Z,4.40
2023-10-18T11:28:18.275Z,4.20
2023-10-18T11:29:17.203Z,4.80
2023-10-18T11:30:17.362Z,4.30
2023-10-18T11:31:17.366Z,4.60
2023-10-18T11:32:17.293Z,4.50
2023-10-18T11:33:17.208Z,4.40
2023-10-18T11:34:17.143Z,5.50
2023-10-18T11:35:19.236Z,4.10
2023-10-18T11:36:17.109Z,4.00
2023-10-18T11:37:17.136Z,5.20
2023-10-18T11:38:17.082Z,4.70
2023-10-18T11:39:17.082Z,4.10
2023-10-18T11:40:17.155Z,4.20
2023-10-18T11:41:17.048Z,4.30
2023-10-18T11:42:17.065Z,4.30
2023-10-18T11:43:17.050Z,4.10
2023-10-18T11:44:17.025Z,4.10
2023-10-18T11:45:16.984Z,4.10
2023-10-18T11:46:17.035Z,3.90
2023-10-18T11:47:16.961Z,4.40
2023-10-18T11:48:16.954Z,3.90
2023-10-18T11:49:16.999Z,3.90
2023-10-18T11:50:16.949Z,3.80
2023-10-18T11:51:16.914Z,4.10
2023-10-18T11:52:16.917Z,4.20
2023-10-18T11:53:16.902Z,4.30
2023-10-18T11:54:16.881Z,4.00
2023-10-18T11:55:16.922Z,3.80
2023-10-18T11:56:16.843Z,4.10
2023-10-18T11:57:16.827Z,4.20
2023-10-18T11:58:16.839Z,3.80
2023-10-18T11:59:16.799Z,4.00
2023-10-18T12:00:16.821Z,4.20
2023-10-18T12:01:16.937Z,4.30
2023-10-18T12:02:16.803Z,4.10
2023-10-18T12:03:16.918Z,4.20
2023-10-18T12:04:17.270Z,3.70
2023-10-18T12:05:18.842Z,4.20
2023-10-18T12:06:16.732Z,3.90
2023-10-18T12:07:16.736Z,3.60
2023-10-18T12:08:16.712Z,4.10
2023-10-18T12:09:16.690Z,4.30
2023-10-18T12:10:16.780Z,4.60
2023-10-18T12:11:16.664Z,4.20
2023-10-18T12:12:16.661Z,3.70
2023-10-18T12:13:16.643Z,3.70
2023-10-18T12:14:16.614Z,3.70
2023-10-18T12:15:16.597Z,3.50
2023-10-18T12:16:16.694Z,4.00
2023-10-18T12:17:16.576Z,3.60
2023-10-18T12:18:16.568Z,4.00
2023-10-18T12:19:16.643Z,3.90
2023-10-18T12:20:16.530Z,3.70
2023-10-18T12:21:16.520Z,3.50
2023-10-18T12:22:16.828Z,3.70
2023-10-18T12:23:17.201Z,3.00
2023-10-18T12:24:16.473Z,3.30
2023-10-18T12:25:16.617Z,3.60
2023-10-18T12:26:16.460Z,3.70
2023-10-18T12:27:16.428Z,3.60
2023-10-18T12:28:16.472Z,3.20
2023-10-18T12:29:16.427Z,3.00
2023-10-18T12:30:30.595Z,3.30
2023-10-18T12:31:17.487Z,3.00
2023-10-18T12:32:16.415Z,3.20
2023-10-18T12:33:16.394Z,3.00
2023-10-18T12:34:16.394Z,3.30
2023-10-18T12:35:16.341Z,2.90
2023-10-18T12:36:16.349Z,3.40
2023-10-18T12:37:16.365Z,3.30
2023-10-18T12:38:16.320Z,3.00
2023-10-18T12:39:16.286Z,3.10
2023-10-18T12:40:16.352Z,3.00
2023-10-18T12:41:16.271Z,2.70
2023-10-18T12:42:16.245Z,3.00
2023-10-18T12:43:16.277Z,2.80
2023-10-18T12:44:16.230Z,2.70
2023-10-18T12:45:16.213Z,2.40
2023-10-18T12:46:16.285Z,2.70
2023-10-18T12:47:16.174Z,2.40
2023-10-18T12:48:16.169Z,2.80
2023-10-18T12:49:16.187Z,2.40
2023-10-18T12:50:16.158Z,2.40
2023-10-18T12:51:16.131Z,2.60
2023-10-18T12:52:16.142Z,2.50
2023-10-18T12:53:16.150Z,2.60
2023-10-18T12:55:16.098Z,2.60
2023-10-18T12:56:16.068Z,2.80
2023-10-18T12:57:16.053Z,2.30
2023-10-18T12:58:16.042Z,2.60
2023-10-18T12:59:16.107Z,2.60
2023-10-18T13:00:16.019Z,2.50
2023-10-18T13:01:16.050Z,2.60
2023-10-18T13:02:16.057Z,3.30
2023-10-18T13:03:16.060Z,2.50
2023-10-18T13:04:15.988Z,2.60
2023-10-18T13:05:16.012Z,2.40
2023-10-18T13:06:15.968Z,2.20
2023-10-18T13:07:15.926Z,2.50
2023-10-18T13:08:15.953Z,2.70
2023-10-18T13:09:15.961Z,2.60
2023-10-18T13:10:15.898Z,2.50
2023-10-18T13:11:16.179Z,2.80
2023-10-18T13:12:15.906Z,2.50
2023-10-18T13:13:15.856Z,2.30
2023-10-18T13:14:15.914Z,2.50
2023-10-18T13:15:15.869Z,2.60
2023-10-18T13:16:15.871Z,2.70
2023-10-18T13:17:15.806Z,2.70
2023-10-18T13:18:15.832Z,2.50
2023-10-18T13:19:15.772Z,2.70
2023-10-18T13:20:15.797Z,2.60
2023-10-18T13:21:15.745Z,2.40
2023-10-18T13:22:15.752Z,2.60
2023-10-18T13:23:15.787Z,2.70
2023-10-18T13:24:15.707Z,2.80
2023-10-18T13:25:15.691Z,2.70
2023-10-18T13:26:15.750Z,2.90
2023-10-18T13:27:15.683Z,2.90
2023-10-18T13:28:15.660Z,2.80
2023-10-18T13:29:15.677Z,2.90
2023-10-18T13:30:15.637Z,2.60
2023-10-18T13:31:15.664Z,2.70
2023-10-18T13:32:15.637Z,2.90
2023-10-18T13:33:15.743Z,3.00
2023-10-18T13:34:15.590Z,2.50
2023-10-18T13:35:15.588Z,2.60
2023-10-18T13:36:15.573Z,3.00
2023-10-18T13:37:15.592Z,2.90
2023-10-18T13:38:15.565Z,2.80
2023-10-18T13:39:15.521Z,2.70
2023-10-18T13:40:15.506Z,3.30
2023-10-18T13:41:15.535Z,3.00
2023-10-18T13:42:15.505Z,2.80
2023-10-18T13:43:15.464Z,2.70
2023-10-18T13:44:15.617Z,3.10
2023-10-18T13:45:15.449Z,2.80
2023-10-18T13:46:15.484Z,2.70
2023-10-18T13:47:15.458Z,3.20
2023-10-18T13:48:15.483Z,2.70
2023-10-18T13:49:15.390Z,2.90
2023-10-18T13:50:16.827Z,3.30
2023-10-18T13:51:15.378Z,2.90
2023-10-18T13:52:15.352Z,2.50
2023-10-18T13:53:15.423Z,2.80
2023-10-18T13:54:15.338Z,2.80
2023-10-18T13:55:15.353Z,2.80
2023-10-18T13:56:15.342Z,2.70
2023-10-18T13:57:15.361Z,2.70
2023-10-18T13:58:15.276Z,2.90
2023-10-18T13:59:15.289Z,2.60
2023-10-18T14:00:15.270Z,2.90
2023-10-18T14:01:15.242Z,3.40
2023-10-18T14:02:15.247Z,3.10
2023-10-18T14:03:15.480Z,2.90
2023-10-18T14:04:15.323Z,3.00
2023-10-18T14:05:15.205Z,2.90
2023-10-18T14:06:15.168Z,2.60
2023-10-18T14:07:15.145Z,2.50
2023-10-18T14:08:15.164Z,2.90
2023-10-18T14:09:15.234Z,2.60
2023-10-18T14:10:15.130Z,2.70
2023-10-18T14:11:15.139Z,2.60
2023-10-18T14:12:15.089Z,2.70
2023-10-18T14:13:15.078Z,3.00
2023-10-18T14:14:15.156Z,3.20
2023-10-18T14:15:15.050Z,2.90
2023-10-18T14:16:15.046Z,2.70
2023-10-18T14:17:15.909Z,3.00
2023-10-18T14:18:15.036Z,2.90
2023-10-18T14:19:15.015Z,2.70
2023-10-18T14:20:15.815Z,2.70
2023-10-18T14:21:14.972Z,2.60
2023-10-18T14:22:14.966Z,2.70
2023-10-18T14:23:14.968Z,2.90
2023-10-18T14:24:14.962Z,2.90
2023-10-18T14:25:15.090Z,3.00
2023-10-18T14:26:14.922Z,2.50
2023-10-18T14:27:14.903Z,2.70
2023-10-18T14:28:14.904Z,2.80
2023-10-18T14:29:14.903Z,3.10
2023-10-18T14:30:14.869Z,2.80
2023-10-18T14:31:14.890Z,2.90
2023-10-18T14:32:14.866Z,3.10
2023-10-18T14:33:23.920Z,3.00
2023-10-18T14:34:15.820Z,2.70
2023-10-18T14:35:14.840Z,2.50
2023-10-18T14:36:14.852Z,2.60
2023-10-18T14:37:14.821Z,2.90
2023-10-18T14:38:14.849Z,2.70
2023-10-18T14:39:15.370Z,2.90
2023-10-18T14:40:14.792Z,2.60
2023-10-18T14:41:28.749Z,2.70
2023-10-18T14:42:15.732Z,2.60
2023-10-18T14:43:14.721Z,2.90
2023-10-18T14:44:14.715Z,2.70
2023-10-18T14:45:14.674Z,2.80
2023-10-18T14:46:14.671Z,2.40
2023-10-18T14:47:14.697Z,2.60
2023-10-18T14:48:14.762Z,2.80
2023-10-18T14:49:14.618Z,2.60
2023-10-18T14:50:14.740Z,2.50
2023-10-18T14:51:14.587Z,2.10
2023-10-18T14:52:14.592Z,2.60
2023-10-18T14:53:14.608Z,2.40
2023-10-18T14:54:14.555Z,2.20
2023-10-18T14:55:14.545Z,2.60
2023-10-18T14:56:14.569Z,3.10
2023-10-18T14:57:14.555Z,2.60
2023-10-18T14:58:14.504Z,2.40
2023-10-18T14:59:14.538Z,2.40
2023-10-18T15:00:14.480Z,2.50
2023-10-18T15:01:14.652Z,2.90
2023-10-18T15:02:14.622Z,2.70
2023-10-18T15:03:14.484Z,2.90
2023-10-18T15:04:14.450Z,2.70
2023-10-18T15:05:14.462Z,2.90
2023-10-18T15:06:14.419Z,2.90
2023-10-18T15:07:14.400Z,2.60
2023-10-18T15:08:14.419Z,2.90
2023-10-18T15:09:14.354Z,2.50
2023-10-18T15:10:14.346Z,2.80
2023-10-18T15:11:14.447Z,2.70
2023-10-18T15:12:17.302Z,2.40
2023-10-18T15:13:14.304Z,2.80
2023-10-18T15:14:14.347Z,2.60
2023-10-18T15:15:14.289Z,2.60
2023-10-18T15:16:14.284Z,3.00
2023-10-18T15:17:14.321Z,2.30
2023-10-18T15:18:14.367Z,2.80
2023-10-18T15:19:14.223Z,2.70
2023-10-18T15:20:14.300Z,2.60
2023-10-18T15:21:14.200Z,2.80
2023-10-18T15:22:14.232Z,2.60
2023-10-18T15:23:14.227Z,2.60
2023-10-18T15:24:14.166Z,2.40
2023-10-18T15:25:14.157Z,2.60
2023-10-18T15:26:14.133Z,2.90
2023-10-18T15:27:14.223Z,2.70
2023-10-18T15:28:14.109Z,2.60
2023-10-18T15:29:14.117Z,3.10
2023-10-18T15:30:14.101Z,2.80
2023-10-18T15:31:14.119Z,2.90
2023-10-18T15:32:14.094Z,2.70
2023-10-18T15:33:14.081Z,2.70
2023-10-18T15:34:14.049Z,2.50
2023-10-18T15:35:14.051Z,2.60
2023-10-18T15:36:14.013Z,2.70
2023-10-18T15:37:13.990Z,3.00
2023-10-18T15:38:14.031Z,2.60
2023-10-18T15:39:13.978Z,2.80
2023-10-18T15:40:13.954Z,2.60
2023-10-18T15:41:14.013Z,2.80
2023-10-18T15:42:13.930Z,3.10
2023-10-18T15:43:13.921Z,3.00
2023-10-18T15:44:14.002Z,3.00
2023-10-18T15:45:13.880Z,3.00
2023-10-18T15:46:13.911Z,3.10
2023-10-18T15:47:13.913Z,2.50
2023-10-18T15:48:13.858Z,2.90
2023-10-18T15:49:13.831Z,2.90
2023-10-18T15:50:13.852Z,2.60
2023-10-18T15:51:13.810Z,2.60
2023-10-18T15:52:13.816Z,2.40
2023-10-18T15:53:13.813Z,2.70
2023-10-18T15:54:13.879Z,2.40
2023-10-18T15:55:13.755Z,2.80
2023-10-18T15:56:13.801Z,2.90
2023-10-18T15:57:13.741Z,2.80
2023-10-18T15:58:13.732Z,3.00
2023-10-18T15:59:13.728Z,3.00
2023-10-18T16:00:13.705Z,3.30
2023-10-18T16:01:13.782Z,2.60
2023-10-18T16:02:13.994Z,2.80
2023-10-18T16:03:13.773Z,2.70
2023-10-18T16:04:13.820Z,2.80
2023-10-18T16:05:13.654Z,2.90
2023-10-18T16:06:15.019Z,3.00
2023-10-18T16:07:13.613Z,3.20
2023-10-18T16:08:13.592Z,3.30
2023-10-18T16:09:13.579Z,2.80
2023-10-18T16:10:13.563Z,3.40
2023-10-18T16:11:13.609Z,3.40
2023-10-18T16:12:13.555Z,3.30
2023-10-18T16:13:13.520Z,2.90
2023-10-18T16:14:13.605Z,2.90
2023-10-18T16:15:13.517Z,2.80
2023-10-18T16:16:13.612Z,2.70
2023-10-18T16:17:13.497Z,2.90
2023-10-18T16:18:13.585Z,3.00
2023-10-18T16:19:13.453Z,3.00
2023-10-18T16:20:13.518Z,3.10
2023-10-18T16:21:13.442Z,2.80
2023-10-18T16:22:13.412Z,2.70
2023-10-18T16:23:13.430Z,2.90
2023-10-18T16:24:13.383Z,3.10
2023-10-18T16:25:13.382Z,3.10
2023-10-18T16:26:13.426Z,3.00
2023-10-18T16:27:13.404Z,3.30
2023-10-18T16:28:13.331Z,2.30
2023-10-18T16:29:13.333Z,2.80
2023-10-18T16:30:13.314Z,2.50
2023-10-18T16:31:13.328Z,2.90
2023-10-18T16:32:13.373Z,3.00
2023-10-18T16:33:13.368Z,3.20
2023-10-18T16:34:13.274Z,3.20
2023-10-18T16:35:13.273Z,2.80
2023-10-18T16:36:13.220Z,2.90
2023-10-18T16:37:13.202Z,3.00
2023-10-18T16:38:13.236Z,3.10
2023-10-18T16:39:13.178Z,2.90
2023-10-18T16:40:13.192Z,2.70
2023-10-18T16:41:13.166Z,2.80
2023-10-18T16:42:13.151Z,2.40
2023-10-18T16:43:13.163Z,2.60
2023-10-18T16:44:13.169Z,2.70
2023-10-18T16:45:13.123Z,2.90
2023-10-18T16:46:13.206Z,2.70
2023-10-18T16:47:13.078Z,2.40
2023-10-18T16:48:13.162Z,2.90
2023-10-18T16:49:13.061Z,2.80
2023-10-18T16:50:13.977Z,2.90
2023-10-18T16:51:13.029Z,2.80
2023-10-18T16:52:13.011Z,3.00
2023-10-18T16:53:13.036Z,3.10
2023-10-18T16:54:13.109Z,2.70
2023-10-18T16:55:12.967Z,2.80
2023-10-18T16:56:13.104Z,2.40
2023-10-18T16:57:12.935Z,2.50
2023-10-18T16:58:12.939Z,2.40
2023-10-18T16:59:12.938Z,2.10
2023-10-18T17:00:12.903Z,2.60
2023-10-18T17:01:12.962Z,2.60
2023-10-18T17:02:12.949Z,2.50
2023-10-18T17:03:12.955Z,2.30
2023-10-18T17:04:13.031Z,2.50
2023-10-18T17:05:12.877Z,2.30
2023-10-18T17:06:12.818Z,2.60
2023-10-18T17:07:12.819Z,2.10
2023-10-18T17:08:13.983Z,2.00
2023-10-18T17:09:12.799Z,2.30
2023-10-18T17:10:12.780Z,2.20
2023-10-18T17:11:12.786Z,2.30
2023-10-18T17:13:02.931Z,2.40
2023-10-18T17:14:02.943Z,2.50
2023-10-18T17:15:02.903Z,2.50
2023-10-18T17:16:02.899Z,2.40
2023-10-18T17:17:02.927Z,2.30
2023-10-18T17:18:02.940Z,3.30
2023-10-18T17:19:02.865Z,2.80
2023-10-18T17:20:02.838Z,2.10
2023-10-18T17:21:18.367Z,2.50
2023-10-18T17:22:03.974Z,2.30
2023-10-18T17:23:02.842Z,2.40
2023-10-18T17:24:02.787Z,2.20
2023-10-18T17:25:02.774Z,2.20
2023-10-18T17:26:02.787Z,2.10
2023-10-18T17:27:02.762Z,2.40
2023-10-18T17:28:02.751Z,2.20
2023-10-18T17:29:02.764Z,3.00